Time;durP1;ratioP1;P1;durP2;ratioP2;P2;SDS_P1;SDS_P2;PMS_P1;PMS_P2;Temp;Humidity;BMP_temperature;BMP_pressure;BME280_temperature;BME280_humidity;BME280_pressure;Samples;Min_cycle;Max_cycle;Signal;HPM_P1;HPM_P2
2022/05/03 00:00:51;;;;;;;16.90;15.30;;;;;;;12.54;100.00;99216.38;4986812;28;20197;-75
2022/05/03 00:03:23;;;;;;;17.98;16.17;;;;;;;12.39;100.00;99212.97;4976172;28;20188;-76
2022/05/03 00:06:00;;;;;;;17.30;15.50;;;;;;;12.40;100.00;99209.28;4988878;28;20255;-74
2022/05/03 00:08:37;;;;;;;18.50;16.60;;;;;;;12.26;100.00;99217.50;4993163;28;20196;-75
2022/05/03 00:11:10;;;;;;;18.05;16.02;;;;;;;12.16;100.00;99211.88;4985673;28;20185;-75
2022/05/03 00:13:47;;;;;;;18.00;16.20;;;;;;;12.12;100.00;99210.41;4976546;28;20259;-75
2022/05/03 00:16:14;;;;;;;18.58;16.63;;;;;;;12.18;100.00;99207.25;4979335;28;20276;-75
2022/05/03 00:18:42;;;;;;;19.00;17.00;;;;;;;12.24;100.00;99208.66;4987546;28;20259;-76
2022/05/03 00:21:11;;;;;;;17.13;15.30;;;;;;;12.23;100.00;99197.00;4976058;28;20185;-76
2022/05/03 00:23:39;;;;;;;16.80;15.10;;;;;;;12.33;100.00;99193.66;4980732;28;20196;-76
2022/05/03 00:26:07;;;;;;;18.35;16.20;;;;;;;12.20;100.00;99201.75;4992722;28;20251;-76
2022/05/03 00:28:34;;;;;;;18.23;16.42;;;;;;;11.98;100.00;99199.69;4986373;28;20664;-75
2022/05/03 00:31:02;;;;;;;17.13;15.43;;;;;;;11.93;100.00;99201.84;4975515;28;20205;-75
2022/05/03 00:33:32;;;;;;;19.42;16.75;;;;;;;11.80;100.00;99189.22;4976560;28;20292;-76
2022/05/03 00:35:59;;;;;;;20.58;16.67;;;;;;;11.81;100.00;99188.22;4978540;28;20180;-75
2022/05/03 00:38:25;;;;;;;18.45;16.65;;;;;;;11.78;100.00;99185.75;4992192;28;20202;-75
2022/05/03 00:41:00;;;;;;;20.38;17.30;;;;;;;11.84;100.00;99190.69;4985576;28;20195;-75
2022/05/03 00:43:37;;;;;;;17.95;16.15;;;;;;;11.81;100.00;99185.53;4975772;28;20914;-75
2022/05/03 00:46:08;;;;;;;17.85;15.90;;;;;;;11.76;100.00;99193.09;4989411;28;20211;-76
2022/05/03 00:48:50;;;;;;;17.50;15.80;;;;;;;11.66;100.00;99183.88;4975106;28;20215;-75
2022/05/03 00:51:19;;;;;;;18.88;16.98;;;;;;;11.67;100.00;99188.34;4975502;28;20193;-75
2022/05/03 00:54:00;;;;;;;18.67;16.60;;;;;;;11.62;100.00;99185.06;4974171;28;20263;-75
2022/05/03 00:56:41;;;;;;;17.52;15.77;;;;;;;11.60;100.00;99189.69;4976473;28;20188;-75
2022/05/03 00:59:17;;;;;;;18.42;16.52;;;;;;;11.61;100.00;99188.75;4975314;28;20608;-75
2022/05/03 01:01:55;;;;;;;18.70;16.70;;;;;;;11.45;100.00;99189.78;4974990;28;20199;-76
2022/05/03 01:04:26;;;;;;;18.02;16.25;;;;;;;11.52;100.00;99184.84;4975318;28;20193;-76
2022/05/03 01:06:56;;;;;;;19.45;17.33;;;;;;;11.52;100.00;99184.00;4975463;28;20537;-75
2022/05/03 01:09:32;;;;;;;17.20;15.40;;;;;;;11.48;100.00;99186.88;4975397;28;20678;-77
2022/05/03 01:12:11;;;;;;;18.80;16.42;;;;;;;11.49;100.00;99185.06;4987681;28;20183;-76
2022/05/03 01:14:52;;;;;;;17.35;15.55;;;;;;;11.63;100.00;99184.13;4991604;28;20192;-76
2022/05/03 01:17:25;;;;;;;20.10;16.55;;;;;;;11.63;100.00;99184.13;4990553;28;20274;-76
2022/05/03 01:20:03;;;;;;;18.02;15.60;;;;;;;11.34;100.00;99184.25;4977502;28;20554;-75
2022/05/03 01:23:01;;;;;;;18.98;17.05;;;;;;;11.29;100.00;99181.03;4975085;28;20192;-75
2022/05/03 01:25:51;;;;;;;18.35;16.45;;;;;;;11.31;100.00;99179.09;4980357;28;20678;-76
2022/05/03 01:28:29;;;;;;;18.52;16.70;;;;;;;11.20;100.00;99173.56;4983034;28;20314;-77
2022/05/03 01:30:58;;;;;;;17.90;16.10;;;;;;;11.12;100.00;99182.16;4975115;28;20224;-76
2022/05/03 01:33:32;;;;;;;17.42;15.70;;;;;;;11.09;100.00;99176.13;4976043;28;20200;-76
2022/05/03 01:36:00;;;;;;;17.98;15.95;;;;;;;11.08;100.00;99177.94;4974538;28;20601;-76
2022/05/03 01:38:35;;;;;;;18.58;16.88;;;;;;;11.07;100.00;99176.22;4974472;28;20192;-76
2022/05/03 01:41:19;;;;;;;19.50;15.40;;;;;;;10.89;100.00;99181.00;4974561;28;20188;-76
2022/05/03 01:44:02;;;;;;;17.90;16.10;;;;;;;10.95;100.00;99175.19;4991053;28;20192;-76
2022/05/03 01:46:34;;;;;;;18.83;16.95;;;;;;;10.95;100.00;99168.97;4977013;28;20215;-76
2022/05/03 01:51:58;;;;;;;20.08;17.33;;;;;;;10.87;100.00;99177.53;4975498;28;20215;-76
2022/05/03 01:54:46;;;;;;;18.05;16.05;;;;;;;10.82;100.00;99176.97;4976187;28;20208;-75
2022/05/03 01:57:25;;;;;;;18.85;16.95;;;;;;;10.72;100.00;99167.75;4981534;28;20196;-75
2022/05/03 02:00:04;;;;;;;18.67;16.83;;;;;;;10.68;100.00;99164.41;4982850;28;20548;-75
2022/05/03 02:02:53;;;;;;;17.80;16.10;;;;;;;10.62;100.00;99162.97;4986909;28;20192;-74
2022/05/03 02:05:32;;;;;;;19.20;17.20;;;;;;;10.53;100.00;99171.66;4974227;28;20208;-75
2022/05/03 02:07:59;;;;;;;20.67;17.02;;;;;;;10.43;100.00;99167.84;4975572;28;20552;-76
2022/05/03 02:10:57;;;;;;;18.10;16.30;;;;;;;10.40;100.00;99160.84;4988835;28;20215;-75
2022/05/03 02:16:45;;;;;;;19.08;16.63;;;;;;;10.39;100.00;99177.06;4990940;28;20278;-76
2022/05/03 02:19:31;;;;;;;18.80;16.77;;;;;;;10.35;100.00;99175.53;4991188;28;20633;-75
2022/05/03 02:22:13;;;;;;;17.85;16.05;;;;;;;10.17;100.00;99177.53;4991130;28;20191;-74
2022/05/03 02:24:48;;;;;;;18.75;16.85;;;;;;;10.26;100.00;99182.34;4976691;28;20191;-77
2022/05/03 02:27:18;;;;;;;18.83;16.92;;;;;;;10.27;100.00;99184.06;4990477;28;20234;-75
2022/05/03 02:29:47;;;;;;;18.25;16.38;;;;;;;10.43;100.00;99170.53;4991116;28;20199;-76
2022/05/03 02:32:18;;;;;;;18.08;16.17;;;;;;;10.43;100.00;99176.78;4986815;28;20191;-75
2022/05/03 02:34:50;;;;;;;18.45;16.52;;;;;;;10.35;100.00;99178.22;4989035;28;20191;-76
2022/05/03 02:37:18;;;;;;;18.60;16.83;;;;;;;10.34;100.00;99179.19;4974268;28;20657;-76
2022/05/03 02:40:04;;;;;;;19.38;17.38;;;;;;;10.34;100.00;99177.38;4973767;28;20198;-76
2022/05/03 02:42:32;;;;;;;19.10;16.60;;;;;;;10.25;100.00;99182.44;4985073;28;20717;-77
2022/05/03 02:45:01;;;;;;;18.55;16.75;;;;;;;10.11;100.00;99176.09;4974027;28;20189;-75
2022/05/03 02:47:35;;;;;;;18.90;16.95;;;;;;;10.14;100.00;99172.34;4973732;28;20222;-76
2022/05/03 02:50:10;;;;;;;23.50;17.17;;;;;;;9.95;100.00;99181.59;4983424;28;20196;-75
2022/05/03 02:52:57;;;;;;;17.65;15.85;;;;;;;10.05;100.00;99179.19;4990347;28;20190;-75
2022/05/03 02:55:32;;;;;;;18.67;16.60;;;;;;;10.19;100.00;99176.47;4991085;28;20195;-75
2022/05/03 02:58:06;;;;;;;18.95;17.02;;;;;;;10.28;100.00;99174.16;4990811;28;20198;-76
2022/05/03 03:03:53;;;;;;;18.60;16.60;;;;;;;9.89;100.00;99179.25;4977270;28;20198;-75
2022/05/03 03:06:23;;;;;;;18.10;16.25;;;;;;;9.88;100.00;99182.03;4973644;28;20212;-75
2022/05/03 03:08:53;;;;;;;19.13;16.45;;;;;;;9.96;100.00;99179.75;4973772;28;20198;-76
2022/05/03 03:11:30;;;;;;;18.77;16.85;;;;;;;10.03;100.00;99178.41;4993646;28;20240;-77
2022/05/03 03:14:07;;;;;;;18.05;16.15;;;;;;;10.07;100.00;99173.72;4977886;28;20243;-75
2022/05/03 03:16:35;;;;;;;18.55;16.83;;;;;;;9.90;100.00;99172.06;4977365;28;20650;-77
2022/05/03 03:19:21;;;;;;;18.98;16.95;;;;;;;9.73;100.00;99168.59;4990491;28;20243;-77
2022/05/03 03:21:49;;;;;;;18.45;16.65;;;;;;;9.71;100.00;99170.50;4991635;28;20352;-76
2022/05/03 03:24:18;;;;;;;18.10;16.23;;;;;;;9.66;100.00;99171.78;4990029;28;20222;-75
2022/05/03 03:26:48;;;;;;;18.73;16.95;;;;;;;9.68;100.00;99176.09;4993673;28;20708;-75
2022/05/03 03:29:16;;;;;;;18.60;16.67;;;;;;;9.75;100.00;99166.69;4993738;28;20202;-75
2022/05/03 03:31:44;;;;;;;19.17;17.27;;;;;;;9.68;100.00;99170.72;4993194;28;20215;-76
2022/05/03 03:34:12;;;;;;;18.10;15.82;;;;;;;9.69;100.00;99164.34;4994092;28;20619;-75
2022/05/03 03:36:41;;;;;;;20.50;18.13;;;;;;;9.73;100.00;99171.28;4993237;28;20200;-75
2022/05/03 03:39:09;;;;;;;18.63;16.63;;;;;;;9.68;100.00;99165.34;4976900;28;20193;-75
2022/05/03 03:41:35;;;;;;;20.23;16.58;;;;;;;9.67;100.00;99168.97;4979732;28;20797;-75
2022/05/03 03:44:05;;;;;;;20.25;17.95;;;;;;;9.72;100.00;99177.63;4993536;28;20187;-76
2022/05/03 03:46:33;;;;;;;21.33;18.60;;;;;;;9.66;100.00;99161.88;4980564;28;20211;-76
2022/05/03 03:48:59;;;;;;;20.40;16.10;;;;;;;9.62;100.00;99160.31;4991892;28;20289;-75
2022/05/03 03:51:27;;;;;;;17.95;16.15;;;;;;;9.69;100.00;99171.56;4992127;28;20206;-76
2022/05/03 03:53:54;;;;;;;18.85;16.95;;;;;;;9.73;100.00;99179.34;4982825;28;20184;-75
2022/05/03 03:56:22;;;;;;;19.80;17.35;;;;;;;9.64;100.00;99174.53;4993771;28;20201;-76
2022/05/03 03:58:49;;;;;;;20.25;18.15;;;;;;;9.68;100.00;99183.25;4993882;28;20187;-76
2022/05/03 04:01:15;;;;;;;22.40;17.70;;;;;;;9.57;100.00;99173.19;4993684;28;20210;-75
2022/05/03 04:03:43;;;;;;;20.08;17.77;;;;;;;9.47;100.00;99177.38;4981433;28;20200;-75
2022/05/03 04:06:09;;;;;;;18.30;16.55;;;;;;;9.45;100.00;99176.59;4977239;28;20211;-75
2022/05/03 04:08:36;;;;;;;18.80;16.95;;;;;;;9.44;100.00;99174.88;4978492;28;20188;-76
2022/05/03 04:11:14;;;;;;;19.88;17.83;;;;;;;9.50;100.00;99169.16;4993306;28;20646;-74
2022/05/03 04:13:42;;;;;;;19.13;17.13;;;;;;;9.57;100.00;99179.41;4983850;28;20283;-75
2022/05/03 04:16:09;;;;;;;19.33;17.33;;;;;;;9.68;100.00;99175.19;4977483;28;20206;-77
2022/05/03 04:18:45;;;;;;;20.70;18.00;;;;;;;9.73;100.00;99178.50;4976243;28;20200;-76
2022/05/03 04:21:13;;;;;;;19.65;17.60;;;;;;;9.75;100.00;99180.13;4976068;28;20579;-76
2022/05/03 04:23:40;;;;;;;20.80;18.70;;;;;;;9.68;100.00;99175.19;4976097;28;20184;-77
2022/05/03 04:26:06;;;;;;;19.60;17.60;;;;;;;9.59;100.00;99171.28;4984226;28;20585;-75
2022/05/03 04:28:33;;;;;;;26.05;18.33;;;;;;;9.66;100.00;99177.16;4991754;28;20228;-75
2022/05/03 04:31:01;;;;;;;20.63;17.80;;;;;;;9.69;100.00;99171.56;4988471;28;20292;-76
2022/05/03 04:33:28;;;;;;;19.40;17.17;;;;;;;9.60;100.00;99173.84;4987094;28;20245;-75
2022/05/03 04:35:54;;;;;;;20.98;18.73;;;;;;;9.50;100.00;99177.22;4993626;28;20213;-75
2022/05/03 04:38:21;;;;;;;19.45;17.35;;;;;;;9.51;100.00;99181.63;4994175;28;20550;-74
2022/05/03 04:40:47;;;;;;;19.05;17.20;;;;;;;9.58;100.00;99180.28;4993874;28;20205;-76
2022/05/03 04:43:14;;;;;;;18.90;16.92;;;;;;;9.59;100.00;99190.94;4992175;28;20195;-76
2022/05/03 04:45:40;;;;;;;21.48;17.73;;;;;;;9.59;100.00;99187.41;4993860;28;20183;-75
2022/05/03 04:48:09;;;;;;;19.90;17.88;;;;;;;9.66;100.00;99186.06;4993331;28;20662;-76
2022/05/03 04:50:36;;;;;;;20.25;18.15;;;;;;;9.63;100.00;99188.91;4974442;28;20211;-76
2022/05/03 04:53:03;;;;;;;21.48;18.65;;;;;;;9.73;100.00;99183.88;4974339;28;20193;-74
2022/05/03 04:55:29;;;;;;;19.40;17.50;;;;;;;9.72;100.00;99188.38;4974356;28;20191;-76
2022/05/03 04:57:56;;;;;;;18.73;16.90;;;;;;;9.72;100.00;99192.88;4974378;28;20552;-75
2022/05/03 05:00:22;;;;;;;20.45;18.30;;;;;;;9.66;100.00;99188.75;4973915;28;20465;-78
2022/05/03 05:02:49;;;;;;;19.83;17.52;;;;;;;9.53;100.00;99187.75;4974236;28;20278;-76
2022/05/03 05:05:17;;;;;;;19.98;17.80;;;;;;;9.75;100.00;99193.56;4973877;28;20292;-75
2022/05/03 05:07:44;;;;;;;26.98;19.80;;;;;;;9.72;100.00;99192.88;4973799;28;20263;-77
2022/05/03 05:10:24;;;;;;;19.83;17.58;;;;;;;9.71;100.00;99202.78;4974934;28;20212;-76
2022/05/03 05:12:51;;;;;;;20.55;18.38;;;;;;;9.91;100.00;99195.31;4983868;28;20201;-77
2022/05/03 05:15:18;;;;;;;25.65;18.80;;;;;;;10.04;100.00;99198.97;4993152;28;20278;-77
2022/05/03 05:17:44;;;;;;;22.80;19.17;;;;;;;10.02;100.00;99200.91;4993296;28;20573;-75
2022/05/03 05:20:11;;;;;;;22.90;18.38;;;;;;;9.96;100.00;99199.44;4993189;28;20638;-77
2022/05/03 05:22:41;;;;;;;22.48;20.17;;;;;;;9.91;100.00;99203.38;4992861;28;20203;-76
2022/05/03 05:25:08;;;;;;;20.35;18.25;;;;;;;9.77;100.00;99202.41;4989007;28;20216;-78
2022/05/03 05:27:35;;;;;;;20.63;17.73;;;;;;;9.83;100.00;99211.91;4973317;28;20420;-77
2022/05/03 05:30:02;;;;;;;22.83;18.10;;;;;;;9.98;100.00;99207.41;4973389;28;20591;-78
2022/05/03 05:32:28;;;;;;;29.20;20.17;;;;;;;9.90;100.00;99213.25;4973231;28;20282;-77
2022/05/03 05:34:55;;;;;;;26.15;18.90;;;;;;;9.94;100.00;99216.63;4976486;28;20370;-77
2022/05/03 05:37:22;;;;;;;20.65;18.45;;;;;;;10.14;100.00;99227.03;4973670;28;20307;-77
2022/05/03 05:39:49;;;;;;;23.25;19.88;;;;;;;10.33;100.00;99215.13;4974244;28;20195;-77
2022/05/03 05:42:16;;;;;;;21.23;18.65;;;;;;;10.63;100.00;99223.09;4990550;28;20203;-75
2022/05/03 05:44:43;;;;;;;22.35;18.90;;;;;;;10.78;100.00;99215.84;4991556;28;20607;-76
2022/05/03 05:47:10;;;;;;;26.90;20.13;;;;;;;10.84;100.00;99221.69;4993093;28;20198;-75
2022/05/03 05:49:36;;;;;;;23.35;18.50;;;;;;;11.00;100.00;99216.16;4993448;28;20209;-75
2022/05/03 05:54:47;;;;;;;19.85;17.65;;;;;;;11.36;100.00;99224.59;4992539;28;20191;-76
2022/05/03 05:57:15;;;;;;;24.35;19.73;;;;;;;11.74;100.00;99226.53;4993823;28;20570;-75
2022/05/03 05:59:42;;;;;;;19.80;17.75;;;;;;;11.83;100.00;99220.50;4993847;28;20188;-75
2022/05/03 06:02:08;;;;;;;21.38;19.02;;;;;;;11.68;100.00;99223.25;4993208;28;20196;-76
2022/05/03 06:04:35;;;;;;;24.40;18.35;;;;;;;11.96;100.00;99229.50;4993141;28;20196;-76
2022/05/03 06:07:01;;;;;;;22.27;19.50;;;;;;;11.95;100.00;99232.28;4993660;28;20188;-75
2022/05/03 06:09:28;;;;;;;20.65;18.55;;;;;;;12.25;100.00;99230.13;4993577;28;20199;-76
2022/05/03 06:11:55;;;;;;;20.73;18.73;;;;;;;12.29;100.00;99239.72;4993821;28;20188;-76
2022/05/03 06:14:26;;;;;;;19.92;17.85;;;;;;;12.35;100.00;99232.19;5045579;23;20242;-84
2022/05/03 06:16:54;;;;;;;24.80;19.17;;;;;;;12.28;100.00;99240.72;4992530;28;20575;-82
2022/05/03 06:19:21;;;;;;;22.70;19.17;;;;;;;12.36;100.00;99236.59;4991701;28;20195;-82
2022/05/03 06:21:48;;;;;;;20.67;18.58;;;;;;;12.31;100.00;99240.50;4991738;28;20229;-82
2022/05/03 06:24:18;;;;;;;20.50;18.42;;;;;;;12.40;100.00;99240.81;4991577;28;20188;-82
2022/05/03 06:26:44;;;;;;;21.83;19.63;;;;;;;12.58;100.00;99235.94;4990759;28;20292;-83
2022/05/03 06:29:12;;;;;;;19.77;17.75;;;;;;;12.67;100.00;99237.97;4991925;28;20247;-82
2022/05/03 06:31:42;;;;;;;23.02;19.70;;;;;;;13.19;100.00;99233.28;4992108;28;20197;-82
2022/05/03 06:34:09;;;;;;;20.98;18.55;;;;;;;13.35;98.98;99239.28;4992004;28;20194;-82
2022/05/03 06:36:36;;;;;;;21.13;18.58;;;;;;;13.38;98.67;99239.03;4992235;28;20245;-81
2022/05/03 06:39:03;;;;;;;24.02;21.23;;;;;;;13.20;99.13;99232.28;4991885;28;20192;-81
2022/05/03 06:41:29;;;;;;;23.00;20.45;;;;;;;13.06;99.75;99228.75;4992207;28;20974;-80
2022/05/03 06:43:58;;;;;;;22.15;19.85;;;;;;;13.22;100.00;99239.28;4992475;28;20918;-81
2022/05/03 06:46:24;;;;;;;23.30;19.85;;;;;;;13.47;97.66;99242.91;4995836;28;20205;-81
2022/05/03 06:48:52;;;;;;;20.48;18.30;;;;;;;13.33;98.76;99239.38;4995835;28;20197;-81
2022/05/03 06:51:19;;;;;;;22.05;19.80;;;;;;;13.47;98.20;99240.19;4995790;28;20220;-80
2022/05/03 06:53:47;;;;;;;20.55;18.35;;;;;;;13.56;95.52;99243.06;4995395;28;20229;-81
2022/05/03 06:56:14;;;;;;;21.40;19.10;;;;;;;13.81;94.42;99232.19;4995464;28;20211;-80
2022/05/03 06:58:41;;;;;;;27.02;20.60;;;;;;;13.92;92.96;99241.19;4995237;28;20196;-80
2022/05/03 07:01:09;;;;;;;23.58;18.80;;;;;;;14.00;93.59;99237.03;4995001;28;20284;-81
2022/05/03 07:03:35;;;;;;;21.77;19.55;;;;;;;14.17;91.27;99240.16;4995183;28;20229;-81
2022/05/03 07:06:04;;;;;;;25.75;19.92;;;;;;;14.64;87.61;99239.25;4995049;28;20195;-81
2022/05/03 07:08:30;;;;;;;21.83;19.58;;;;;;;14.69;86.35;99232.44;4995215;28;20191;-82
2022/05/03 07:10:57;;;;;;;21.88;19.55;;;;;;;14.72;86.20;99236.75;4995178;28;20670;-81
2022/05/03 07:13:24;;;;;;;21.25;18.88;;;;;;;14.69;86.18;99243.28;4994882;28;20203;-81
2022/05/03 07:15:51;;;;;;;21.02;19.00;;;;;;;14.95;85.27;99234.91;4995687;28;20541;-81
2022/05/03 07:23:47;;;;;;;25.48;19.00;;;;;;;15.26;83.21;99235.91;4995756;28;20283;-81
2022/05/03 07:26:14;;;;;;;21.15;18.83;;;;;;;15.15;83.62;99239.53;4994870;28;20676;-80
2022/05/03 07:28:41;;;;;;;23.65;19.77;;;;;;;15.59;81.32;99237.66;4996368;28;20187;-81
2022/05/03 07:31:09;;;;;;;21.48;19.38;;;;;;;15.93;79.16;99239.38;4995501;28;20193;-81
2022/05/03 07:33:36;;;;;;;20.08;18.02;;;;;;;16.10;77.83;99237.91;4995467;28;20286;-81
2022/05/03 07:36:03;;;;;;;22.20;19.08;;;;;;;15.75;79.91;99242.66;4995272;28;20213;-81
2022/05/03 07:38:30;;;;;;;22.48;20.38;;;;;;;16.04;79.08;99242.03;4994699;28;20268;-82
2022/05/03 07:40:58;;;;;;;26.10;19.73;;;;;;;16.29;77.32;99246.19;4995219;28;20187;-83
2022/05/03 07:43:25;;;;;;;22.52;18.13;;;;;;;16.51;75.62;99245.16;4998816;28;20203;-77
2022/05/03 07:45:51;;;;;;;20.73;17.13;;;;;;;16.44;75.66;99246.72;4994516;28;20294;-78
2022/05/03 07:48:18;;;;;;;21.63;19.02;;;;;;;16.70;74.22;99243.53;4994759;28;20203;-77
2022/05/03 07:50:45;;;;;;;22.05;19.08;;;;;;;17.05;72.63;99234.97;4994469;28;20202;-77
2022/05/03 07:53:11;;;;;;;21.75;18.35;;;;;;;16.93;72.43;99236.06;4994962;28;20253;-77
2022/05/03 07:55:38;;;;;;;18.73;16.92;;;;;;;17.10;71.58;99243.56;4994049;28;20283;-76
2022/05/03 07:58:06;;;;;;;17.58;15.77;;;;;;;17.23;70.87;99248.72;4994166;28;20230;-77
2022/05/03 08:00:33;;;;;;;18.52;16.08;;;;;;;17.41;69.71;99247.03;4994824;28;20191;-77
2022/05/03 08:02:59;;;;;;;18.63;16.77;;;;;;;17.63;68.25;99243.19;4994263;28;20208;-77
2022/05/03 08:05:26;;;;;;;17.42;15.63;;;;;;;17.61;68.41;99250.63;4994148;28;20202;-76
2022/05/03 08:07:53;;;;;;;20.35;18.23;;;;;;;18.05;65.90;99247.50;4993946;28;20203;-78
2022/05/03 08:10:19;;;;;;;16.33;14.65;;;;;;;17.91;65.80;99252.38;4994538;28;20199;-77
2022/05/03 08:12:51;;;;;;;14.82;13.43;;;;;;;18.02;62.89;99245.06;4994473;28;20679;-77
2022/05/03 08:15:19;;;;;;;13.85;12.43;;;;;;;18.52;60.28;99253.00;4994323;28;20234;-77
2022/05/03 08:17:46;;;;;;;14.82;13.43;;;;;;;18.59;59.20;99247.78;4993667;28;20210;-77
2022/05/03 08:20:14;;;;;;;14.20;12.80;;;;;;;18.82;58.88;99246.44;4994156;28;20209;-77
2022/05/03 08:22:42;;;;;;;14.68;13.02;;;;;;;18.99;57.69;99246.63;4993847;28;20585;-78
2022/05/03 08:25:08;;;;;;;14.57;12.20;;;;;;;19.09;57.22;99244.72;4994125;28;20542;-78
2022/05/03 08:27:38;;;;;;;15.40;12.25;;;;;;;19.03;56.34;99248.91;4993225;28;20198;-79
2022/05/03 08:30:06;;;;;;;12.45;11.23;;;;;;;19.06;57.04;99253.19;4993736;28;20187;-78
2022/05/03 08:32:34;;;;;;;13.10;11.88;;;;;;;19.22;55.91;99252.53;4993203;28;20190;-78
2022/05/03 08:35:00;;;;;;;12.85;10.98;;;;;;;19.07;56.89;99244.88;4984582;28;20187;-80
2022/05/03 08:42:56;;;;;;;14.02;12.00;;;;;;;18.78;58.28;99247.75;4993625;28;20201;-78
2022/05/03 08:45:24;;;;;;;12.45;11.25;;;;;;;19.04;57.66;99247.91;4995662;28;20236;-77
2022/05/03 08:47:52;;;;;;;15.80;11.80;;;;;;;19.05;57.52;99243.31;4992979;28;20186;-78
2022/05/03 08:50:20;;;;;;;13.10;11.90;;;;;;;19.05;57.87;99248.78;4992913;28;20202;-77
2022/05/03 08:52:49;;;;;;;11.82;10.73;;;;;;;19.31;56.59;99247.03;4992935;28;20505;-76
2022/05/03 08:55:16;;;;;;;12.30;11.10;;;;;;;19.32;56.30;99258.81;4992897;28;20281;-78
2022/05/03 08:57:43;;;;;;;12.75;11.35;;;;;;;19.42;56.15;99245.09;4991122;28;20207;-75
2022/05/03 09:00:14;;;;;;;12.65;11.38;;;;;;;19.30;56.96;99258.94;4992878;28;20207;-77
2022/05/03 09:02:46;;;;;;;13.68;11.77;;;;;;;19.33;56.45;99257.78;4992533;28;20803;-77
2022/05/03 09:05:14;;;;;;;12.75;11.55;;;;;;;19.41;55.30;99254.31;4991920;28;20285;-77
2022/05/03 09:07:48;;;;;;;13.65;11.82;;;;;;;19.82;53.99;99261.06;4975722;28;20254;-78
2022/05/03 09:10:18;;;;;;;12.27;11.05;;;;;;;19.86;53.75;99253.41;4973504;28;20202;-78
2022/05/03 09:12:45;;;;;;;12.70;11.40;;;;;;;20.03;53.47;99247.06;4984403;28;20199;-77
2022/05/03 09:15:12;;;;;;;15.17;12.50;;;;;;;20.34;52.31;99254.81;4992637;28;20762;-76
2022/05/03 09:17:40;;;;;;;13.70;11.53;;;;;;;20.66;51.57;99256.06;4992535;28;20871;-77
2022/05/03 09:25:48;;;;;;;12.60;10.53;;;;;;;21.27;48.87;99249.50;4992888;28;20430;-79
2022/05/03 09:28:15;;;;;;;13.53;10.70;;;;;;;21.22;48.65;99249.16;4993781;28;20445;-80
2022/05/03 09:30:50;;;;;;;11.67;10.57;;;;;;;21.21;48.86;99245.56;4986152;28;20799;-80
2022/05/03 09:33:57;;;;;;;11.93;10.40;;;;;;;21.21;48.68;99244.69;4991429;28;20929;-81
2022/05/03 09:36:26;;;;;;;12.33;10.30;;;;;;;21.14;48.31;99244.50;4930337;29;20460;-80
2022/05/03 09:38:56;;;;;;;11.33;10.33;;;;;;;21.34;47.67;99242.31;4944591;28;20537;-79
2022/05/03 09:41:23;;;;;;;11.80;10.60;;;;;;;21.32;47.79;99244.38;4992475;28;20766;-79
2022/05/03 09:44:07;;;;;;;11.90;10.80;;;;;;;21.42;47.54;99241.53;4987128;28;20431;-79
2022/05/03 09:46:53;;;;;;;11.60;9.60;;;;;;;21.74;46.75;99245.38;4986681;28;20892;-77
2022/05/03 09:49:21;;;;;;;11.43;10.27;;;;;;;21.36;47.32;99244.91;4991643;28;20450;-78
2022/05/03 09:51:50;;;;;;;11.93;10.20;;;;;;;21.68;46.78;99241.41;4992875;28;20442;-78
2022/05/03 09:54:17;;;;;;;12.67;11.47;;;;;;;21.61;45.93;99237.63;4976273;28;21022;-77
2022/05/03 09:56:48;;;;;;;11.93;10.73;;;;;;;21.60;46.67;99236.78;4992010;28;20803;-77
2022/05/03 09:59:16;;;;;;;13.07;10.90;;;;;;;21.76;46.66;99241.41;4991532;28;20477;-78
2022/05/03 10:01:43;;;;;;;12.97;11.77;;;;;;;22.34;45.38;99241.44;4991679;28;20443;-78
2022/05/03 10:04:11;;;;;;;12.13;10.93;;;;;;;22.34;44.98;99238.69;4992043;28;20782;-77
2022/05/03 10:06:37;;;;;;;10.80;9.80;;;;;;;22.57;44.43;99236.94;4991001;28;20813;-78
2022/05/03 10:09:08;;;;;;;12.43;11.10;;;;;;;22.20;45.88;99238.31;4992619;28;20806;-79
2022/05/03 10:11:46;;;;;;;10.07;9.17;;;;;;;21.99;46.37;99236.13;4988207;28;20439;-77
2022/05/03 10:14:12;;;;;;;13.40;11.23;;;;;;;22.05;46.07;99232.69;4990036;28;21016;-76
2022/05/03 10:22:08;;;;;;;12.10;10.30;;;;;;;21.82;43.77;99232.53;4987816;28;20938;-79
2022/05/03 10:24:58;;;;;;;11.03;9.13;;;;;;;22.02;43.56;99233.03;4995712;28;20513;-78
2022/05/03 10:27:26;;;;;;;10.90;9.83;;;;;;;21.99;43.47;99230.63;4991040;28;20813;-78
2022/05/03 10:30:17;;;;;;;10.93;9.80;;;;;;;21.57;45.36;99231.66;4988129;28;20430;-78
2022/05/03 10:32:43;;;;;;;10.97;9.87;;;;;;;21.42;45.75;99217.75;4992792;28;20457;-80
2022/05/03 10:35:34;;;;;;;10.37;9.30;;;;;;;21.71;45.16;99224.63;4984168;28;20452;-79
2022/05/03 10:38:06;;;;;;;11.20;10.10;;;;;;;21.77;45.58;99217.59;4994121;28;20471;-78
2022/05/03 10:40:40;;;;;;;10.90;9.83;;;;;;;21.75;45.64;99222.41;4994479;28;20450;-77
2022/05/03 10:43:09;;;;;;;10.37;9.37;;;;;;;22.02;45.46;99213.84;4994606;28;20438;-78
2022/05/03 10:45:53;;;;;;;10.10;9.10;;;;;;;21.59;47.08;99213.13;4994572;28;20454;-76
2022/05/03 10:48:28;;;;;;;10.60;9.70;;;;;;;20.97;48.70;99207.16;4989782;28;20432;-77
2022/05/03 10:50:57;;;;;;;11.00;10.00;;;;;;;20.68;49.61;99215.75;4993702;28;20452;-77
2022/05/03 10:53:29;;;;;;;11.80;10.60;;;;;;;20.66;49.83;99209.56;4994850;28;20481;-78
2022/05/03 10:56:06;;;;;;;9.80;9.00;;;;;;;21.17;48.69;99207.72;4992871;28;20446;-78
2022/05/03 10:58:35;;;;;;;11.10;10.00;;;;;;;21.33;47.42;99205.03;4995220;28;20564;-76
2022/05/03 11:01:03;;;;;;;11.03;9.97;;;;;;;21.35;47.50;99204.88;4994439;28;20450;-77
2022/05/03 11:03:30;;;;;;;12.00;10.53;;;;;;;20.90;47.53;99195.16;4994495;28;20632;-78
2022/05/03 11:06:34;;;;;;;10.87;9.73;;;;;;;21.05;47.29;99207.16;4994718;28;20464;-77
2022/05/03 11:09:11;;;;;;;11.53;9.67;;;;;;;21.49;46.15;99197.91;4994654;28;20442;-77
2022/05/03 11:11:58;;;;;;;10.03;9.00;;;;;;;21.69;45.37;99193.81;4994934;28;20926;-78
2022/05/03 11:14:53;;;;;;;9.80;8.80;;;;;;;22.48;42.80;99191.38;4987279;28;20845;-77
2022/05/03 11:17:20;;;;;;;12.03;8.70;;;;;;;23.06;40.22;99179.13;4994595;28;20442;-78
2022/05/03 11:19:52;;;;;;;9.30;8.40;;;;;;;22.89;40.34;99177.50;4994566;28;20486;-77
2022/05/03 11:22:20;;;;;;;8.33;7.53;;;;;;;22.34;40.60;99184.72;4994265;28;20438;-78
2022/05/03 11:24:48;;;;;;;8.87;7.50;;;;;;;22.23;41.22;99176.84;4994745;28;20439;-79
2022/05/03 11:27:17;;;;;;;8.27;7.30;;;;;;;21.76;41.18;99175.66;4994845;28;20807;-78
2022/05/03 11:29:46;;;;;;;8.33;7.57;;;;;;;21.41;42.51;99166.75;4993775;28;20426;-77
2022/05/03 11:32:13;;;;;;;10.30;9.30;;;;;;;21.10;43.03;99173.81;4989997;28;20475;-78
2022/05/03 11:34:41;;;;;;;9.03;8.10;;;;;;;21.08;43.20;99165.78;4993617;28;20450;-80
2022/05/03 11:37:08;;;;;;;10.30;8.67;;;;;;;21.35;43.05;99167.38;4993569;28;20438;-78
2022/05/03 11:39:36;;;;;;;8.87;7.97;;;;;;;21.42;43.11;99164.84;4978991;28;20471;-77
2022/05/03 11:42:06;;;;;;;10.60;8.40;;;;;;;21.49;43.33;99168.63;4978654;28;20454;-76
2022/05/03 11:44:35;;;;;;;9.30;8.40;;;;;;;21.68;43.07;99161.09;4987992;28;20462;-76
2022/05/03 11:47:04;;;;;;;10.83;8.07;;;;;;;21.97;41.62;99160.56;4983274;28;20466;-78
2022/05/03 11:49:32;;;;;;;9.80;8.50;;;;;;;21.75;42.96;99154.75;4990812;28;20430;-76
2022/05/03 11:57:34;;;;;;;8.80;7.83;;;;;;;21.93;41.64;99148.25;4985276;28;20502;-76
2022/05/03 12:00:06;;;;;;;9.10;8.10;;;;;;;22.01;41.35;99148.25;4990304;28;20450;-78
2022/05/03 12:02:34;;;;;;;7.57;6.87;;;;;;;21.92;41.96;99146.53;4993320;28;20439;-76
2022/05/03 12:05:03;;;;;;;9.33;8.13;;;;;;;21.77;42.47;99149.09;4993198;28;20795;-76
2022/05/03 12:07:30;;;;;;;13.50;8.03;;;;;;;21.98;41.40;99145.81;4985314;28;20449;-76
2022/05/03 12:09:57;;;;;;;11.30;7.70;;;;;;;21.85;41.45;99143.63;4993393;28;20475;-76
2022/05/03 12:15:42;;;;;;;7.63;6.93;;;;;;;21.97;41.28;99144.13;4992901;28;20621;-77